Terminal Aerodrome Forecast
Issued by NWS Goodland, KS

Home | Current Version | Previous Version | Text Only | Print | Product List | Glossary On
Versions: 1 2 3 4 5 6 7 8 9 10 11 12 13 14 15 16
000
FTUS43 KGLD 281120
TAFGLD
TAF
KGLD 281120Z 2812/2912 26006KT P6SM SKC
     FM282000 28011KT P6SM FEW250
     FM290000 21008KT P6SM SCT250
     FM290600 23012G17KT P6SM SCT250
     FM290900 33018G30KT P6SM FEW250=

USA.gov is the U.S. government's official web portal to all federal, state and local government web resources and services.